Time;durP1;ratioP1;P1;durP2;ratioP2;P2;SDS_P1;SDS_P2;PMS_P1;PMS_P2;Temp;Humidity;BMP_temperature;BMP_pressure;BME280_temperature;BME280_humidity;BME280_pressure;Samples;Min_cycle;Max_cycle;Signal;HPM_P1;HPM_P2
2023/01/29 00:02:33;;;;;;;;;;;;;;;4.85;56.92;101156.53;5396898;32;35203;-80
2023/01/29 00:05:35;;;;;;;;;;;;;;;4.61;57.80;101159.22;5407213;32;34953;-78
2023/01/29 00:08:37;;;;;;;;;;;;;;;4.57;57.76;101160.06;5390908;32;34756;-78
2023/01/29 00:11:39;;;;;;;;;;;;;;;4.98;56.56;101153.91;5408353;32;34771;-80
2023/01/29 00:14:41;;;;;;;;;;;;;;;4.59;58.08;101166.16;5381490;32;34134;-79
2023/01/29 00:17:43;;;;;;;;;;;;;;;4.27;58.73;101169.69;5396840;32;44463;-80
2023/01/29 00:20:45;;;;;;;;;;;;;;;4.28;58.46;101167.94;5402020;32;35504;-78
2023/01/29 00:23:47;;;;;;;;;;;;;;;4.28;58.20;101180.97;5385669;32;35414;-80
2023/01/29 00:26:49;;;;;;;;;;;;;;;4.33;58.72;101177.50;5419905;32;35253;-78
2023/01/29 00:30:08;;;;;;;;;;;;;;;4.13;59.03;101171.44;5400617;32;35656;-78
2023/01/29 00:33:12;;;;;;;;;;;;;;;3.43;61.71;101186.94;5418566;32;35056;-81
2023/01/29 00:36:15;;;;;;;;;;;;;;;3.59;60.67;101183.50;5400994;32;45389;-80
2023/01/29 00:39:24;;;;;;;;;;;;;;;3.41;60.31;101173.91;5392108;32;35313;-80
2023/01/29 00:45:57;;;;;;;;;;;;;;;2.56;62.49;101197.78;5401113;32;34946;-79
2023/01/29 00:48:59;;;;;;;;;;;;;;;3.37;61.69;101192.13;5417264;32;34838;-79
2023/01/29 00:55:22;;;;;;;;;;;;;;;3.03;62.03;101198.88;5400421;32;44578;-79
2023/01/29 00:58:32;;;;;;;;;;;;;;;3.25;61.02;101200.72;5417227;32;35255;-78
2023/01/29 01:04:55;;;;;;;;;;;;;;;3.13;61.56;101196.34;5419465;32;35790;-77
2023/01/29 01:07:57;;;;;;;;;;;;;;;3.26;61.99;101198.12;5392871;32;35248;-79
2023/01/29 01:11:05;;;;;;;;;;;;;;;3.50;61.31;101197.34;5406223;32;36870;-79
2023/01/29 01:14:08;;;;;;;;;;;;;;;3.56;60.87;101193.91;5391816;32;36419;-77
2023/01/29 01:17:10;;;;;;;;;;;;;;;2.74;63.04;101197.03;5381551;32;34925;-78
2023/01/29 01:20:12;;;;;;;;;;;;;;;3.23;61.82;101194.69;5405520;32;34252;-81
2023/01/29 01:23:13;;;;;;;;;;;;;;;3.37;61.02;101197.31;5386230;32;45036;-78
2023/01/29 01:26:15;;;;;;;;;;;;;;;3.33;61.30;101199.03;5418916;32;35118;-79
2023/01/29 01:29:17;;;;;;;;;;;;;;;2.93;62.63;101205.78;5403039;32;34832;-80
2023/01/29 01:32:19;;;;;;;;;;;;;;;2.99;62.99;101205.81;5404324;32;35024;-77
2023/01/29 01:35:21;;;;;;;;;;;;;;;2.20;64.35;101210.50;5400804;32;35004;-80
2023/01/29 01:38:23;;;;;;;;;;;;;;;2.54;63.78;101214.19;5403506;32;33444;-79
2023/01/29 01:41:25;;;;;;;;;;;;;;;2.96;62.30;101214.47;5412485;32;35358;-80
2023/01/29 01:44:46;;;;;;;;;;;;;;;3.24;61.47;101206.78;5386780;32;35108;-79
2023/01/29 01:47:50;;;;;;;;;;;;;;;2.22;63.70;101216.56;5415665;32;44605;-80
2023/01/29 01:51:02;;;;;;;;;;;;;;;3.49;60.59;101216.41;5390112;32;35858;-78
2023/01/29 01:54:11;;;;;;;;;;;;;;;2.93;62.70;101229.16;5400730;32;35736;-79
2023/01/29 01:57:17;;;;;;;;;;;;;;;2.84;63.30;101223.94;5415553;32;43032;-79
2023/01/29 02:00:19;;;;;;;;;;;;;;;2.13;64.66;101223.41;5389345;32;34253;-79
2023/01/29 02:10:10;;;;;;;;;;;;;;;2.89;62.32;101219.59;5396052;32;35327;-78
2023/01/29 02:13:15;;;;;;;;;;;;;;;2.28;63.86;101224.38;5384112;32;34272;-77
2023/01/29 02:16:17;;;;;;;;;;;;;;;2.14;64.54;101222.56;5369518;32;43062;-79
2023/01/29 02:19:22;;;;;;;;;;;;;;;2.96;62.43;101229.16;5404083;32;35295;-81
2023/01/29 02:22:43;;;;;;;;;;;;;;;2.63;63.59;101228.09;5391084;32;35354;-80
2023/01/29 02:26:04;;;;;;;;;;;;;;;3.43;60.94;101229.38;5398853;32;46580;-80
2023/01/29 02:29:21;;;;;;;;;;;;;;;2.81;62.36;101235.12;5418465;32;35017;-79
2023/01/29 02:32:30;;;;;;;;;;;;;;;2.20;64.04;101239.91;5400211;32;35535;-78
2023/01/29 02:35:51;;;;;;;;;;;;;;;2.60;62.93;101245.38;5414983;32;34563;-80
2023/01/29 02:38:53;;;;;;;;;;;;;;;1.95;65.11;101243.13;5410559;32;35457;-79
2023/01/29 02:42:00;;;;;;;;;;;;;;;2.60;63.57;101237.59;5389932;32;35451;-79
2023/01/29 02:45:02;;;;;;;;;;;;;;;2.37;63.77;101237.41;5393960;32;35525;-78
2023/01/29 02:48:04;;;;;;;;;;;;;;;2.64;63.28;101242.84;5401552;32;34562;-78
2023/01/29 02:51:09;;;;;;;;;;;;;;;1.78;65.94;101251.56;5416211;32;35290;-78
2023/01/29 02:54:21;;;;;;;;;;;;;;;2.04;65.29;101249.25;5387427;32;35062;-78
2023/01/29 02:57:24;;;;;;;;;;;;;;;1.99;65.40;101253.50;5399513;32;37191;-78
2023/01/29 03:00:27;;;;;;;;;;;;;;;2.19;64.89;101256.31;5404099;32;35783;-79
2023/01/29 03:03:38;;;;;;;;;;;;;;;2.47;64.69;101262.59;5398209;32;35299;-77
2023/01/29 03:07:03;;;;;;;;;;;;;;;2.30;64.46;101257.25;5409259;32;35405;-78
2023/01/29 03:10:10;;;;;;;;;;;;;;;3.38;60.79;101264.00;5388083;32;36751;-78
2023/01/29 03:13:21;;;;;;;;;;;;;;;3.14;61.59;101264.75;5377033;32;36376;-79
2023/01/29 03:16:33;;;;;;;;;;;;;;;2.38;62.69;101262.50;5399562;32;35603;-79
2023/01/29 03:19:39;;;;;;;;;;;;;;;2.18;63.71;101262.34;5389072;32;34806;-81
2023/01/29 03:22:41;;;;;;;;;;;;;;;2.38;64.13;101260.81;5392435;32;35419;-79
2023/01/29 03:32:25;;;;;;;;;;;;;;;1.82;66.56;101270.63;5416363;32;37289;-81
2023/01/29 03:35:47;;;;;;;;;;;;;;;2.58;64.61;101281.72;5397873;32;35055;-78
2023/01/29 03:38:49;;;;;;;;;;;;;;;2.57;64.05;101277.37;5414621;32;45791;-78
2023/01/29 03:42:11;;;;;;;;;;;;;;;2.73;63.04;101273.16;5388693;32;34825;-79
2023/01/29 03:45:22;;;;;;;;;;;;;;;2.56;64.13;101277.34;5392530;32;45044;-79
2023/01/29 03:48:28;;;;;;;;;;;;;;;2.76;63.83;101282.69;5416529;32;35496;-78
2023/01/29 03:51:33;;;;;;;;;;;;;;;2.01;65.17;101290.72;5389726;32;35319;-78
2023/01/29 03:54:40;;;;;;;;;;;;;;;2.67;64.16;101283.50;5416889;32;33906;-79
2023/01/29 03:58:06;;;;;;;;;;;;;;;2.89;63.29;101276.72;5399893;32;37856;-78
2023/01/29 04:01:08;;;;;;;;;;;;;;;2.18;64.76;101277.91;5394211;32;35338;-77
2023/01/29 04:04:14;;;;;;;;;;;;;;;2.89;62.46;101280.19;5419504;32;33092;-78
2023/01/29 04:07:17;;;;;;;;;;;;;;;2.84;62.75;101276.72;5380106;32;45595;-80
2023/01/29 04:10:20;;;;;;;;;;;;;;;3.09;61.34;101272.53;5418225;32;34422;-80
2023/01/29 04:13:22;;;;;;;;;;;;;;;3.05;61.83;101275.09;5385896;32;35127;-80
2023/01/29 04:16:28;;;;;;;;;;;;;;;2.13;64.21;101267.50;5396502;32;34963;-78
2023/01/29 04:19:30;;;;;;;;;;;;;;;2.82;62.28;101277.53;5393245;32;36232;-77
2023/01/29 04:22:33;;;;;;;;;;;;;;;2.70;63.13;101286.09;5391768;32;35127;-80
2023/01/29 04:25:40;;;;;;;;;;;;;;;2.89;62.65;101275.00;5413435;32;33191;-78
2023/01/29 04:28:41;;;;;;;;;;;;;;;3.75;60.00;101271.09;5401283;32;34922;-80
2023/01/29 04:31:46;;;;;;;;;;;;;;;3.00;61.44;101269.88;5419089;32;43439;-80
2023/01/29 04:34:54;;;;;;;;;;;;;;;3.23;61.43;101265.69;5401225;32;34412;-80
2023/01/29 04:37:56;;;;;;;;;;;;;;;3.28;61.31;101265.69;5409617;32;35349;-79
2023/01/29 04:41:02;;;;;;;;;;;;;;;3.55;59.96;101259.75;5418097;32;35497;-77
2023/01/29 04:44:04;;;;;;;;;;;;;;;3.70;59.72;101269.34;5382711;32;34231;-79
2023/01/29 04:47:22;;;;;;;;;;;;;;;3.53;60.40;101277.91;5418655;32;34757;-78
2023/01/29 04:50:28;;;;;;;;;;;;;;;3.89;58.96;101276.31;5400131;32;35845;-78
2023/01/29 04:53:39;;;;;;;;;;;;;;;4.28;57.62;101272.91;5410941;32;35285;-79
2023/01/29 04:56:43;;;;;;;;;;;;;;;3.77;59.53;101273.69;5412219;32;34603;-79
2023/01/29 04:59:46;;;;;;;;;;;;;;;4.41;56.25;101272.91;5412160;32;45058;-80
2023/01/29 05:02:48;;;;;;;;;;;;;;;3.47;59.62;101288.28;5415975;32;35150;-81
2023/01/29 05:05:51;;;;;;;;;;;;;;;2.83;61.95;101281.88;5399541;32;36975;-78
2023/01/29 05:08:52;;;;;;;;;;;;;;;2.14;62.62;101277.00;5410149;32;34955;-78
2023/01/29 05:11:55;;;;;;;;;;;;;;;3.08;60.39;101275.97;5378351;32;35016;-78
2023/01/29 05:14:57;;;;;;;;;;;;;;;3.09;60.01;101269.06;5394192;32;36562;-78
2023/01/29 05:18:01;;;;;;;;;;;;;;;3.19;59.52;101279.50;5393168;32;35880;-79
2023/01/29 05:21:04;;;;;;;;;;;;;;;3.11;60.04;101286.41;5382677;32;34391;-81
2023/01/29 05:24:07;;;;;;;;;;;;;;;3.55;57.87;101282.28;5409050;32;34231;-80
2023/01/29 05:30:37;;;;;;;;;;;;;;;2.77;59.54;101268.84;5411516;32;35677;-78
2023/01/29 05:33:39;;;;;;;;;;;;;;;3.41;58.53;101271.81;5408333;32;34128;-78
2023/01/29 05:36:41;;;;;;;;;;;;;;;3.36;58.80;101274.41;5402698;32;35301;-79
2023/01/29 05:39:43;;;;;;;;;;;;;;;3.36;58.11;101277.00;5417800;32;44563;-79
2023/01/29 05:42:45;;;;;;;;;;;;;;;3.94;56.26;101261.59;5380834;32;35200;-80
2023/01/29 05:45:56;;;;;;;;;;;;;;;4.36;55.55;101262.50;5415959;32;35365;-78
2023/01/29 05:48:58;;;;;;;;;;;;;;;4.30;55.14;101268.56;5387425;32;35097;-80
2023/01/29 05:52:00;;;;;;;;;;;;;;;3.73;56.71;101259.78;5407687;32;34849;-79
2023/01/29 05:55:02;;;;;;;;;;;;;;;4.35;54.50;101268.56;5413466;32;35972;-78
2023/01/29 05:58:05;;;;;;;;;;;;;;;4.06;55.32;101268.56;5400416;32;35038;-79
2023/01/29 06:01:16;;;;;;;;;;;;;;;4.27;55.08;101275.50;5418255;32;34264;-77
2023/01/29 06:04:18;;;;;;;;;;;;;;;4.21;54.45;101276.38;5387775;32;42907;-81
2023/01/29 06:07:20;;;;;;;;;;;;;;;3.71;56.44;101277.13;5408247;32;35225;-78
2023/01/29 06:10:22;;;;;;;;;;;;;;;3.23;57.86;101291.66;5384679;32;35395;-78
2023/01/29 06:13:24;;;;;;;;;;;;;;;4.05;55.60;101283.28;5383140;32;34687;-81
2023/01/29 06:16:26;;;;;;;;;;;;;;;3.41;56.09;101296.06;5401681;32;35435;-81
2023/01/29 06:19:28;;;;;;;;;;;;;;;3.38;56.35;101306.47;5389107;32;37150;-80
2023/01/29 06:22:31;;;;;;;;;;;;;;;2.85;58.25;101309.59;5407174;32;34366;-79
2023/01/29 06:25:33;;;;;;;;;;;;;;;2.04;60.97;101321.84;5383926;32;34155;-80
2023/01/29 06:28:35;;;;;;;;;;;;;;;2.82;58.37;101319.94;5417818;32;35974;-80
2023/01/29 06:31:37;;;;;;;;;;;;;;;3.21;58.51;101324.53;5400868;32;35028;-79
2023/01/29 06:34:40;;;;;;;;;;;;;;;3.44;57.49;101327.28;5400832;32;35104;-78
2023/01/29 06:37:42;;;;;;;;;;;;;;;2.86;59.23;101333.84;5415776;32;36377;-77
2023/01/29 06:40:45;;;;;;;;;;;;;;;2.14;61.83;101341.84;5386542;32;45009;-80
2023/01/29 06:43:47;;;;;;;;;;;;;;;2.89;60.50;101345.09;5395733;32;35236;-77
2023/01/29 06:46:49;;;;;;;;;;;;;;;2.31;61.37;101351.50;5398182;32;34637;-80
2023/01/29 06:49:51;;;;;;;;;;;;;;;2.25;61.88;101341.06;5418053;32;36039;-78
2023/01/29 06:52:52;;;;;;;;;;;;;;;2.57;60.72;101344.84;5393222;32;35135;-80
2023/01/29 06:55:54;;;;;;;;;;;;;;;2.61;61.84;101356.13;5400977;32;36170;-80
2023/01/29 06:58:56;;;;;;;;;;;;;;;1.98;64.35;101358.09;5417914;32;34726;-82
2023/01/29 07:01:58;;;;;;;;;;;;;;;2.43;62.42;101349.91;5400776;32;35055;-77
2023/01/29 07:05:00;;;;;;;;;;;;;;;2.30;62.95;101345.44;5417240;32;34735;-78
2023/01/29 07:08:02;;;;;;;;;;;;;;;2.56;61.88;101340.50;5387811;32;34664;-81
2023/01/29 07:11:05;;;;;;;;;;;;;;;1.92;63.83;101352.81;5411573;32;35609;-78
2023/01/29 07:14:07;;;;;;;;;;;;;;;2.37;62.56;101344.66;5382064;32;34838;-80
2023/01/29 07:17:09;;;;;;;;;;;;;;;1.73;65.27;101351.72;5385435;32;36228;-80
2023/01/29 07:20:11;;;;;;;;;;;;;;;1.93;64.09;101349.38;5405833;32;34947;-78
2023/01/29 07:23:13;;;;;;;;;;;;;;;1.79;64.20;101351.81;5387416;32;44048;-78
2023/01/29 07:26:15;;;;;;;;;;;;;;;2.60;62.79;101338.81;5407854;32;34407;-79
2023/01/29 07:29:17;;;;;;;;;;;;;;;2.09;63.59;101337.47;5400822;32;36221;-80
2023/01/29 07:32:19;;;;;;;;;;;;;;;2.54;62.17;101333.56;5417315;32;34835;-81
2023/01/29 07:35:21;;;;;;;;;;;;;;;2.30;62.91;101326.44;5401299;32;35906;-79
2023/01/29 07:38:23;;;;;;;;;;;;;;;3.26;59.33;101317.66;5400740;32;35225;-79
2023/01/29 07:41:25;;;;;;;;;;;;;;;2.99;60.25;101326.16;5415069;32;35185;-78
2023/01/29 07:44:27;;;;;;;;;;;;;;;2.05;63.19;101328.78;5384819;32;36067;-80
2023/01/29 07:47:29;;;;;;;;;;;;;;;2.69;60.81;101316.38;5419839;32;35239;-80
2023/01/29 07:50:31;;;;;;;;;;;;;;;2.80;60.86;101320.81;5402216;32;34799;-78
2023/01/29 07:53:34;;;;;;;;;;;;;;;1.69;64.13;101323.19;5416712;32;35670;-79
2023/01/29 07:56:36;;;;;;;;;;;;;;;2.53;62.67;101313.69;5404640;32;37795;-81
2023/01/29 07:59:38;;;;;;;;;;;;;;;3.00;59.82;101329.59;5400491;32;35156;-80
2023/01/29 08:02:40;;;;;;;;;;;;;;;2.32;62.49;101327.31;5417003;32;35487;-78
2023/01/29 08:05:43;;;;;;;;;;;;;;;2.09;62.13;101319.31;5402160;32;36907;-78
2023/01/29 08:08:45;;;;;;;;;;;;;;;1.99;62.73;101326.09;5416640;32;44986;-80
2023/01/29 08:11:46;;;;;;;;;;;;;;;2.06;61.65;101329.63;5382611;32;34967;-79
2023/01/29 08:14:49;;;;;;;;;;;;;;;2.02;61.75;101333.06;5397779;32;34936;-81
2023/01/29 08:17:51;;;;;;;;;;;;;;;1.81;63.45;101333.72;5378398;32;35077;-80
2023/01/29 08:20:59;;;;;;;;;;;;;;;2.46;61.74;101323.12;5385503;32;35140;-80
2023/01/29 08:24:02;;;;;;;;;;;;;;;2.11;60.61;101335.75;5409475;32;35072;-81
2023/01/29 08:27:03;;;;;;;;;;;;;;;1.96;61.68;101331.28;5393325;32;35355;-80
2023/01/29 08:30:06;;;;;;;;;;;;;;;1.90;61.71;101338.97;5419115;32;34637;-78
2023/01/29 08:33:08;;;;;;;;;;;;;;;1.53;63.29;101348.03;5386256;32;35645;-78
2023/01/29 08:36:10;;;;;;;;;;;;;;;1.36;64.07;101340.03;5409870;32;34293;-79
2023/01/29 08:39:12;;;;;;;;;;;;;;;1.95;63.02;101352.00;5409765;32;34909;-78
2023/01/29 08:42:14;;;;;;;;;;;;;;;2.63;60.86;101352.69;5390698;32;43767;-79
2023/01/29 08:45:16;;;;;;;;;;;;;;;1.80;62.27;101365.63;5411135;32;35223;-75
2023/01/29 08:48:17;;;;;;;;;;;;;;;2.63;59.82;101362.19;5388389;32;34901;-78
2023/01/29 08:51:20;;;;;;;;;;;;;;;2.23;61.38;101366.13;5418167;32;34995;-76
2023/01/29 08:54:23;;;;;;;;;;;;;;;3.13;58.89;101367.78;5400538;32;35511;-78
2023/01/29 08:57:25;;;;;;;;;;;;;;;2.36;60.17;101374.06;5410383;32;34997;-79
2023/01/29 09:00:26;;;;;;;;;;;;;;;1.55;63.03;101393.84;5410684;32;35530;-77
2023/01/29 09:03:28;;;;;;;;;;;;;;;1.31;63.54;101401.25;5402012;32;34443;-76
2023/01/29 09:06:30;;;;;;;;;;;;;;;1.80;61.63;101386.37;5415711;32;35018;-79
2023/01/29 09:09:32;;;;;;;;;;;;;;;1.59;62.42;101395.63;5393428;32;35011;-77
2023/01/29 09:12:34;;;;;;;;;;;;;;;2.70;59.49;101383.06;5406183;32;34825;-79
2023/01/29 09:15:36;;;;;;;;;;;;;;;2.55;58.37;101389.81;5384078;32;35288;-76
2023/01/29 09:18:38;;;;;;;;;;;;;;;1.76;61.33;101388.06;5380538;32;34568;-78
2023/01/29 09:21:40;;;;;;;;;;;;;;;2.11;60.23;101391.06;5395023;32;34608;-80
2023/01/29 09:24:42;;;;;;;;;;;;;;;2.10;60.23;101391.06;5385534;32;34321;-79
2023/01/29 09:27:44;;;;;;;;;;;;;;;1.97;60.37;101392.66;5418191;32;44599;-79
2023/01/29 09:30:46;;;;;;;;;;;;;;;2.58;58.78;101376.88;5400782;32;33177;-79
2023/01/29 09:33:48;;;;;;;;;;;;;;;2.56;58.56;101388.94;5418117;32;35402;-78
2023/01/29 09:36:50;;;;;;;;;;;;;;;2.86;58.33;101398.75;5400770;32;34626;-80
2023/01/29 09:39:52;;;;;;;;;;;;;;;3.15;56.42;101386.84;5410005;32;34551;-79
2023/01/29 09:42:57;;;;;;;;;;;;;;;2.81;57.93;101400.44;5390714;32;34785;-76
2023/01/29 09:46:06;;;;;;;;;;;;;;;2.42;58.00;101386.22;5395922;32;37288;-77
2023/01/29 09:49:25;;;;;;;;;;;;;;;3.54;54.93;101398.34;5417208;32;35140;-76
2023/01/29 09:52:37;;;;;;;;;;;;;;;3.08;56.01;101400.66;5399872;32;34919;-76
2023/01/29 09:55:45;;;;;;;;;;;;;;;2.53;58.30;101395.00;5408741;32;35370;-78
2023/01/29 09:58:47;;;;;;;;;;;;;;;2.93;56.17;101395.34;5411566;32;43099;-79
2023/01/29 10:01:54;;;;;;;;;;;;;;;2.17;58.53;101398.94;5402113;32;35283;-76
2023/01/29 10:05:08;;;;;;;;;;;;;;;2.35;57.63;101400.00;5411685;32;35426;-77
2023/01/29 10:08:29;;;;;;;;;;;;;;;2.54;57.10;101396.72;5390439;32;34785;-79
2023/01/29 10:11:34;;;;;;;;;;;;;;;2.77;56.26;101396.97;5406417;32;34127;-76
2023/01/29 10:14:39;;;;;;;;;;;;;;;2.92;55.35;101398.81;5391740;32;35473;-76
2023/01/29 10:17:44;;;;;;;;;;;;;;;2.56;57.02;101404.53;5386233;32;34421;-75
2023/01/29 10:20:48;;;;;;;;;;;;;;;2.30;57.20;101412.91;5402059;32;43108;-76
2023/01/29 10:23:52;;;;;;;;;;;;;;;2.48;56.80;101398.41;5390776;32;34863;-79
2023/01/29 10:26:54;;;;;;;;;;;;;;;2.97;55.63;101404.91;5418483;32;36096;-76
2023/01/29 10:29:56;;;;;;;;;;;;;;;2.53;55.72;101394.13;5400240;32;35182;-77
2023/01/29 10:33:00;;;;;;;;;;;;;;;2.86;55.33;101394.44;5392596;32;34689;-78
2023/01/29 10:36:03;;;;;;;;;;;;;;;2.06;57.42;101395.38;5414738;32;35528;-78
2023/01/29 10:39:08;;;;;;;;;;;;;;;2.81;55.27;101405.63;5395674;32;34226;-77
2023/01/29 10:42:24;;;;;;;;;;;;;;;2.12;56.75;101402.31;5394772;32;34594;-80
2023/01/29 10:45:32;;;;;;;;;;;;;;;2.61;56.33;101403.72;5378069;32;35093;-79
2023/01/29 10:48:43;;;;;;;;;;;;;;;2.17;56.60;101401.53;5400158;32;34336;-76
2023/01/29 10:52:15;;;;;;;;;;;;;;;1.64;57.77;101398.28;5410730;32;44756;-76
2023/01/29 10:55:29;;;;;;;;;;;;;;;2.55;55.57;101389.81;5389255;32;44599;-79
2023/01/29 10:58:48;;;;;;;;;;;;;;;2.08;55.93;101391.06;5419093;32;35504;-78
2023/01/29 11:01:50;;;;;;;;;;;;;;;2.71;54.74;101366.63;5395726;32;45711;-78
2023/01/29 11:04:52;;;;;;;;;;;;;;;2.71;54.20;101364.03;5397159;32;34986;-76
2023/01/29 11:08:00;;;;;;;;;;;;;;;2.88;54.07;101355.47;5408992;32;34838;-76
2023/01/29 11:11:10;;;;;;;;;;;;;;;2.68;53.81;101351.00;5394929;32;35000;-78
2023/01/29 11:14:14;;;;;;;;;;;;;;;2.21;55.41;101362.66;5398636;32;34221;-76
2023/01/29 11:17:20;;;;;;;;;;;;;;;3.15;52.96;101367.78;5382651;32;43366;-79
2023/01/29 11:20:26;;;;;;;;;;;;;;;1.89;56.15;101365.75;5400482;32;35073;-75
2023/01/29 11:23:32;;;;;;;;;;;;;;;2.51;53.49;101346.50;5392750;32;35119;-76
2023/01/29 11:26:35;;;;;;;;;;;;;;;2.60;53.56;101339.69;5398660;32;34006;-76
2023/01/29 11:29:36;;;;;;;;;;;;;;;2.70;53.29;101336.34;5416627;32;34934;-78
2023/01/29 11:32:39;;;;;;;;;;;;;;;2.68;51.99;101335.44;5397673;32;34771;-80
2023/01/29 11:35:41;;;;;;;;;;;;;;;3.37;51.04;101332.44;5418731;32;34778;-79
2023/01/29 11:38:43;;;;;;;;;;;;;;;3.76;49.42;101316.16;5396229;32;45616;-76
2023/01/29 11:41:49;;;;;;;;;;;;;;;2.96;50.71;101318.34;5383193;32;35477;-76
2023/01/29 11:44:51;;;;;;;;;;;;;;;3.45;50.53;101299.56;5386936;32;35334;-76
2023/01/29 11:47:54;;;;;;;;;;;;;;;3.19;49.42;101292.50;5398991;32;35145;-76
2023/01/29 11:50:56;;;;;;;;;;;;;;;3.31;50.07;101299.50;5403493;32;35043;-76
2023/01/29 11:53:59;;;;;;;;;;;;;;;3.68;48.11;101284.06;5397507;32;35059;-78
2023/01/29 11:57:01;;;;;;;;;;;;;;;3.60;48.73;101276.22;5403657;32;35628;-79
2023/01/29 12:00:12;;;;;;;;;;;;;;;2.76;49.68;101293.06;5398605;32;34324;-76
2023/01/29 12:03:34;;;;;;;;;;;;;;;2.59;49.94;101283.44;5396815;32;44514;-76
2023/01/29 12:06:36;;;;;;;;;;;;;;;3.13;48.77;101287.28;5406058;32;37535;-79
2023/01/29 12:09:39;;;;;;;;;;;;;;;3.34;48.33;101278.72;5392691;32;34795;-76
2023/01/29 12:12:41;;;;;;;;;;;;;;;3.05;48.99;101281.16;5399955;32;35926;-80
2023/01/29 12:15:43;;;;;;;;;;;;;;;3.12;48.13;101285.53;5375393;32;44020;-78
2023/01/29 12:18:50;;;;;;;;;;;;;;;3.06;48.36;101275.09;5398164;32;35745;-79
2023/01/29 12:21:56;;;;;;;;;;;;;;;2.06;50.58;101281.25;5390085;32;34707;-79
2023/01/29 12:25:25;;;;;;;;;;;;;;;2.42;50.27;101272.06;5378393;32;35372;-78
2023/01/29 12:28:33;;;;;;;;;;;;;;;3.14;48.31;101276.00;5417426;32;34388;-78
2023/01/29 12:31:43;;;;;;;;;;;;;;;3.14;47.94;101272.53;5400973;32;34040;-79
2023/01/29 12:34:54;;;;;;;;;;;;;;;3.05;47.92;101270.78;5410570;32;44619;-79
2023/01/29 12:37:59;;;;;;;;;;;;;;;3.26;47.63;101273.47;5400898;32;34542;-78
2023/01/29 12:41:05;;;;;;;;;;;;;;;3.17;47.38;101276.03;5387428;32;33971;-80
2023/01/29 12:44:12;;;;;;;;;;;;;;;3.01;47.78;101279.41;5383247;32;35817;-76
2023/01/29 12:47:34;;;;;;;;;;;;;;;3.44;46.83;101277.03;5384458;32;44900;-76
2023/01/29 12:50:36;;;;;;;;;;;;;;;2.84;47.97;101273.25;5395368;32;34608;-79
2023/01/29 12:53:58;;;;;;;;;;;;;;;3.56;46.89;101247.63;5397453;32;33134;-77
2023/01/29 12:57:01;;;;;;;;;;;;;;;3.15;46.89;101267.34;5385486;32;33184;-77
2023/01/29 13:00:17;;;;;;;;;;;;;;;3.19;47.00;101257.88;5406666;32;35105;-77
2023/01/29 13:03:23;;;;;;;;;;;;;;;4.30;44.84;101249.47;5385189;32;44966;-76
2023/01/29 13:06:26;;;;;;;;;;;;;;;4.01;45.06;101246.87;5384208;32;35238;-79
2023/01/29 13:09:29;;;;;;;;;;;;;;;4.16;43.98;101233.87;5397434;32;34808;-79
2023/01/29 13:12:31;;;;;;;;;;;;;;;3.13;46.56;101242.25;5387129;32;33906;-76
2023/01/29 13:15:37;;;;;;;;;;;;;;;3.63;44.90;101233.78;5405228;32;35085;-78
2023/01/29 13:18:40;;;;;;;;;;;;;;;3.07;46.50;101232.69;5385477;32;36519;-75
2023/01/29 13:21:42;;;;;;;;;;;;;;;3.76;46.00;101217.34;5408622;32;33528;-80
2023/01/29 13:24:44;;;;;;;;;;;;;;;5.70;41.64;101209.13;5394324;32;44723;-75
2023/01/29 13:28:04;;;;;;;;;;;;;;;6.18;39.27;101204.47;5400871;32;35291;-76
2023/01/29 13:31:09;;;;;;;;;;;;;;;4.88;42.20;101199.94;5417510;32;34712;-79
2023/01/29 13:34:15;;;;;;;;;;;;;;;6.43;39.77;101200.78;5401211;32;34670;-76
2023/01/29 13:37:23;;;;;;;;;;;;;;;8.04;36.51;101183.06;5418063;32;44509;-76
2023/01/29 13:40:28;;;;;;;;;;;;;;;11.08;31.67;101171.12;5399519;32;35458;-77
2023/01/29 13:43:33;;;;;;;;;;;;;;;8.63;34.31;101191.69;5389608;32;35724;-76
2023/01/29 13:46:38;;;;;;;;;;;;;;;10.68;30.73;101195.84;5408059;32;35081;-76
2023/01/29 13:49:51;;;;;;;;;;;;;;;10.61;30.56;101196.06;5400520;32;34339;-76
2023/01/29 13:52:54;;;;;;;;;;;;;;;9.04;33.73;101203.16;5405059;32;35372;-80
2023/01/29 13:56:02;;;;;;;;;;;;;;;9.82;31.45;101206.75;5397284;32;35345;-75
2023/01/29 13:59:04;;;;;;;;;;;;;;;8.91;32.55;101207.78;5404606;32;35431;-78
2023/01/29 14:02:19;;;;;;;;;;;;;;;8.79;33.66;101193.16;5398565;32;35168;-77
2023/01/29 14:05:32;;;;;;;;;;;;;;;5.81;37.80;101199.50;5399435;32;45232;-76
2023/01/29 14:08:34;;;;;;;;;;;;;;;5.56;39.90;101205.75;5409707;32;34161;-75
2023/01/29 14:11:36;;;;;;;;;;;;;;;5.29;40.39;101217.19;5366074;32;872935;-77
2023/01/29 14:14:47;;;;;;;;;;;;;;;4.87;41.03;101221.66;5403195;32;34118;-77
2023/01/29 14:18:04;;;;;;;;;;;;;;;5.45;40.15;101216.22;5389656;32;43051;-79
2023/01/29 14:21:29;;;;;;;;;;;;;;;4.97;40.49;101228.59;5398357;32;34099;-79
2023/01/29 14:24:31;;;;;;;;;;;;;;;3.04;45.62;101244.81;5414463;32;35064;-76
2023/01/29 14:27:33;;;;;;;;;;;;;;;2.54;47.21;101243.63;5376564;32;35183;-76
2023/01/29 14:30:35;;;;;;;;;;;;;;;2.48;47.30;101245.28;5413365;32;34427;-76
2023/01/29 14:33:37;;;;;;;;;;;;;;;2.85;46.31;101244.69;5397160;32;34365;-77
2023/01/29 14:36:42;;;;;;;;;;;;;;;2.59;47.07;101246.25;5404446;32;34760;-79
2023/01/29 14:39:45;;;;;;;;;;;;;;;1.90;49.15;101245.66;5411478;32;44794;-78
2023/01/29 14:43:06;;;;;;;;;;;;;;;1.61;50.00;101242.75;5381589;32;34365;-76
2023/01/29 14:46:27;;;;;;;;;;;;;;;1.89;50.19;101246.50;5417832;32;34132;-76
2023/01/29 14:49:47;;;;;;;;;;;;;;;1.16;52.08;101243.06;5399381;32;34838;-76
2023/01/29 14:52:49;;;;;;;;;;;;;;;1.54;51.13;101240.94;5401601;32;44408;-79
2023/01/29 14:55:58;;;;;;;;;;;;;;;1.63;50.27;101233.28;5404738;32;34708;-75
2023/01/29 14:59:33;;;;;;;;;;;;;;;0.99;52.02;101253.22;5384345;32;35004;-76
2023/01/29 15:02:42;;;;;;;;;;;;;;;1.11;51.55;101244.75;5392256;32;34141;-76
2023/01/29 15:05:44;;;;;;;;;;;;;;;0.76;53.01;101245.97;5396319;32;48070;-75
2023/01/29 15:08:48;;;;;;;;;;;;;;;1.08;50.88;101236.06;5390693;32;34353;-76
2023/01/29 15:12:09;;;;;;;;;;;;;;;0.81;52.20;101252.09;5408854;32;33485;-78
2023/01/29 15:15:24;;;;;;;;;;;;;;;0.61;53.20;101247.47;5387282;32;35074;-76
2023/01/29 15:18:36;;;;;;;;;;;;;;;0.34;53.47;101242.75;5403492;32;34807;-77
2023/01/29 15:21:38;;;;;;;;;;;;;;;0.84;52.55;101240.94;5386180;32;34251;-77
2023/01/29 15:24:40;;;;;;;;;;;;;;;0.96;52.41;101230.72;5391229;32;34386;-80
2023/01/29 15:27:42;;;;;;;;;;;;;;;1.22;51.54;101231.06;5408605;32;38841;-76
2023/01/29 15:30:44;;;;;;;;;;;;;;;0.65;53.08;101220.81;5398769;32;35392;-78
2023/01/29 15:33:47;;;;;;;;;;;;;;;1.21;52.02;101223.28;5418665;32;34810;-79
2023/01/29 15:36:49;;;;;;;;;;;;;;;1.41;51.27;101228.69;5399390;32;37686;-77
2023/01/29 15:39:51;;;;;;;;;;;;;;;1.51;50.76;101221.06;5418575;32;35281;-78
2023/01/29 15:42:54;;;;;;;;;;;;;;;1.29;52.02;101232.91;5381544;32;34616;-75
2023/01/29 15:45:57;;;;;;;;;;;;;;;1.82;49.16;101232.63;5386039;32;34992;-78
2023/01/29 15:48:59;;;;;;;;;;;;;;;1.50;51.04;101231.41;5421058;32;35225;-75
2023/01/29 15:52:05;;;;;;;;;;;;;;;1.58;50.33;101235.81;5397599;32;34936;-77
2023/01/29 15:55:18;;;;;;;;;;;;;;;1.16;51.53;101243.06;5423084;32;34357;-78
2023/01/29 15:58:22;;;;;;;;;;;;;;;1.43;51.41;101237.37;5398365;32;43468;-75
2023/01/29 16:01:27;;;;;;;;;;;;;;;0.82;53.00;101237.44;5397703;32;35794;-79
2023/01/29 16:04:30;;;;;;;;;;;;;;;1.20;51.71;101242.25;5410644;32;37223;-77
2023/01/29 16:07:32;;;;;;;;;;;;;;;1.24;51.49;101241.47;5394628;32;35462;-78
2023/01/29 16:10:34;;;;;;;;;;;;;;;1.55;50.99;101243.56;5417548;32;34276;-76
2023/01/29 16:13:38;;;;;;;;;;;;;;;1.55;51.19;101247.88;5383615;32;34590;-77
2023/01/29 16:16:43;;;;;;;;;;;;;;;1.43;51.56;101243.44;5398165;32;36978;-77
2023/01/29 16:19:53;;;;;;;;;;;;;;;1.82;50.90;101243.00;5397010;32;46205;-78
2023/01/29 16:22:55;;;;;;;;;;;;;;;0.37;53.23;101254.00;5389169;32;35755;-76
2023/01/29 16:26:01;;;;;;;;;;;;;;;0.28;53.88;101258.16;5416508;32;35604;-75
2023/01/29 16:29:07;;;;;;;;;;;;;;;0.85;52.05;101258.19;5397619;32;34998;-75
2023/01/29 16:32:11;;;;;;;;;;;;;;;1.12;52.08;101260.28;5413594;32;34786;-77